Time;durP1;ratioP1;P1;durP2;ratioP2;P2;SDS_P1;SDS_P2;PMS_P1;PMS_P2;Temp;Humidity;BMP_temperature;BMP_pressure;BME280_temperature;BME280_humidity;BME280_pressure;Samples;Min_cycle;Max_cycle;Signal;HPM_P1;HPM_P2
2022/07/26 00:01:35;;;;;;;6.07;2.20;;;;;;;;;;5031524;28;20271;-62
2022/07/26 00:04:02;;;;;;;7.18;2.28;;;;;;;;;;5032331;28;20658;-62
2022/07/26 00:06:29;;;;;;;7.95;2.13;;;;;;;;;;5030467;28;20208;-61
2022/07/26 00:08:55;;;;;;;9.23;2.00;;;;;;;;;;5048056;28;20223;-62
2022/07/26 00:11:22;;;;;;;4.63;2.42;;;;;;;;;;5029947;28;20184;-61
2022/07/26 00:13:49;;;;;;;4.63;1.75;;;;;;;;;;5032159;28;20202;-62
2022/07/26 00:16:15;;;;;;;10.45;2.60;;;;;;;;;;5030683;28;20579;-61
2022/07/26 00:18:42;;;;;;;9.00;2.58;;;;;;;;;;5033356;28;20215;-62
2022/07/26 00:21:08;;;;;;;13.80;2.38;;;;;;;;;;5030744;28;20199;-62
2022/07/26 00:23:34;;;;;;;9.32;2.03;;;;;;;;;;5032193;28;20188;-62
2022/07/26 00:26:00;;;;;;;9.50;2.00;;;;;;;;;;5020412;28;20188;-61
2022/07/26 00:28:26;;;;;;;7.03;1.75;;;;;;;;;;5012952;28;20212;-60
2022/07/26 00:30:52;;;;;;;7.82;1.85;;;;;;;;;;5022334;28;20192;-61
2022/07/26 00:33:18;;;;;;;8.25;1.83;;;;;;;;;;5031202;28;20195;-62
2022/07/26 00:35:44;;;;;;;6.72;1.90;;;;;;;;;;5030547;28;20500;-60
2022/07/26 00:38:10;;;;;;;4.68;2.05;;;;;;;;;;5032580;28;20540;-61
2022/07/26 00:40:37;;;;;;;9.90;1.98;;;;;;;;;;5031225;28;20195;-62
2022/07/26 00:43:03;;;;;;;8.85;2.00;;;;;;;;;;5031844;28;20200;-61
2022/07/26 00:45:30;;;;;;;7.22;1.90;;;;;;;;;;5029828;28;20271;-61
2022/07/26 00:47:56;;;;;;;6.93;1.73;;;;;;;;;;5032652;28;20265;-61
2022/07/26 00:50:22;;;;;;;5.80;1.60;;;;;;;;;;5031211;28;20242;-61
2022/07/26 00:52:50;;;;;;;8.10;2.10;;;;;;;;;;5032497;28;20176;-61
2022/07/26 00:55:16;;;;;;;7.05;2.00;;;;;;;;;;5033432;28;20187;-60
2022/07/26 00:57:43;;;;;;;8.48;1.85;;;;;;;;;;5031695;28;20207;-61
2022/07/26 01:00:12;;;;;;;5.85;1.58;;;;;;;;;;5030923;28;20230;-61
2022/07/26 01:02:38;;;;;;;4.97;1.85;;;;;;;;;;5046814;28;20188;-61
2022/07/26 01:05:05;;;;;;;7.95;1.88;;;;;;;;;;5030347;28;20176;-61
2022/07/26 01:07:31;;;;;;;7.75;1.45;;;;;;;;;;5031907;28;20289;-61
2022/07/26 01:09:57;;;;;;;6.85;1.70;;;;;;;;;;5030997;28;20187;-61
2022/07/26 01:12:23;;;;;;;8.75;1.80;;;;;;;;;;5032608;28;20202;-61
2022/07/26 01:14:49;;;;;;;4.63;1.48;;;;;;;;;;5030445;28;20202;-61
2022/07/26 01:17:16;;;;;;;6.88;1.95;;;;;;;;;;5027570;28;20202;-61
2022/07/26 01:19:42;;;;;;;5.40;1.73;;;;;;;;;;5026637;28;20628;-61
2022/07/26 01:22:08;;;;;;;7.05;1.52;;;;;;;;;;5027434;28;20183;-61
2022/07/26 01:24:35;;;;;;;6.43;1.50;;;;;;;;;;5030911;28;20199;-61
2022/07/26 01:27:01;;;;;;;7.32;1.63;;;;;;;;;;5031493;28;20186;-61
2022/07/26 01:29:27;;;;;;;7.20;1.70;;;;;;;;;;5032261;28;20372;-61
2022/07/26 01:31:53;;;;;;;6.28;1.52;;;;;;;;;;5030287;28;20188;-61
2022/07/26 01:34:19;;;;;;;5.38;1.65;;;;;;;;;;5030035;28;20195;-59
2022/07/26 01:36:47;;;;;;;5.43;1.50;;;;;;;;;;5029923;28;20228;-60
2022/07/26 01:39:13;;;;;;;6.07;1.80;;;;;;;;;;5046733;28;20192;-60
2022/07/26 01:41:39;;;;;;;8.10;1.98;;;;;;;;;;5028487;28;20191;-60
2022/07/26 01:44:06;;;;;;;8.55;1.45;;;;;;;;;;5047591;28;20176;-60
2022/07/26 01:46:33;;;;;;;10.43;2.22;;;;;;;;;;5038952;28;20199;-60
2022/07/26 01:49:00;;;;;;;9.57;2.20;;;;;;;;;;5040145;28;20211;-61
2022/07/26 01:51:26;;;;;;;12.63;2.05;;;;;;;;;;5034045;28;20181;-60
2022/07/26 01:53:53;;;;;;;8.48;1.63;;;;;;;;;;5034844;28;20228;-60
2022/07/26 01:56:20;;;;;;;7.70;1.83;;;;;;;;;;5033996;28;20184;-60
2022/07/26 01:58:46;;;;;;;9.25;1.92;;;;;;;;;;5035141;28;20220;-59
2022/07/26 02:01:12;;;;;;;8.80;1.88;;;;;;;;;;5049001;28;20223;-60
2022/07/26 02:03:38;;;;;;;8.95;1.92;;;;;;;;;;5035017;28;20185;-59
2022/07/26 02:06:05;;;;;;;7.38;2.03;;;;;;;;;;5048365;28;20206;-61
2022/07/26 02:08:31;;;;;;;5.63;1.90;;;;;;;;;;5050123;28;20243;-60
2022/07/26 02:11:00;;;;;;;9.57;1.80;;;;;;;;;;5033473;28;20203;-60
2022/07/26 02:13:27;;;;;;;10.20;1.90;;;;;;;;;;5034353;28;20259;-60
2022/07/26 02:15:53;;;;;;;8.68;1.77;;;;;;;;;;5033650;28;20176;-60
2022/07/26 02:18:19;;;;;;;8.38;2.10;;;;;;;;;;5035456;28;20530;-60
2022/07/26 02:20:45;;;;;;;9.75;2.17;;;;;;;;;;5032423;28;20639;-61
2022/07/26 02:23:12;;;;;;;7.20;1.77;;;;;;;;;;5032710;28;20598;-60
2022/07/26 02:25:38;;;;;;;9.02;1.90;;;;;;;;;;5033438;28;20183;-60
2022/07/26 02:28:05;;;;;;;9.75;2.10;;;;;;;;;;5035222;28;20204;-60
2022/07/26 02:30:31;;;;;;;8.57;2.10;;;;;;;;;;5033246;28;20203;-60
2022/07/26 02:32:57;;;;;;;10.32;2.13;;;;;;;;;;5034182;28;20180;-60
2022/07/26 02:35:23;;;;;;;6.22;1.70;;;;;;;;;;5032949;28;20175;-60
2022/07/26 02:37:49;;;;;;;8.30;2.15;;;;;;;;;;5033517;28;20231;-60
2022/07/26 02:40:15;;;;;;;7.32;1.92;;;;;;;;;;5033338;28;20188;-59
2022/07/26 02:42:41;;;;;;;3.85;1.80;;;;;;;;;;5034977;28;20176;-60
2022/07/26 02:45:07;;;;;;;6.60;1.83;;;;;;;;;;5032303;28;20180;-60
2022/07/26 02:47:34;;;;;;;9.35;2.38;;;;;;;;;;5033655;28;20216;-61
2022/07/26 02:50:00;;;;;;;8.35;2.28;;;;;;;;;;5047568;28;20188;-60
2022/07/26 02:52:26;;;;;;;7.75;2.05;;;;;;;;;;5049245;28;20192;-61
2022/07/26 02:54:52;;;;;;;6.85;2.42;;;;;;;;;;5032300;28;20187;-61
2022/07/26 02:57:18;;;;;;;5.28;1.98;;;;;;;;;;5034800;28;20191;-61
2022/07/26 02:59:44;;;;;;;8.15;2.58;;;;;;;;;;5031616;28;20556;-61
2022/07/26 03:02:10;;;;;;;6.40;2.10;;;;;;;;;;5033637;28;20296;-62
2022/07/26 03:04:37;;;;;;;4.57;1.88;;;;;;;;;;5031807;28;20558;-60
2022/07/26 03:07:03;;;;;;;7.47;2.10;;;;;;;;;;5049734;28;20198;-62
2022/07/26 03:09:30;;;;;;;6.30;2.05;;;;;;;;;;5031500;28;20251;-62
2022/07/26 03:11:56;;;;;;;6.97;2.38;;;;;;;;;;5031345;28;20215;-61
2022/07/26 03:14:22;;;;;;;8.00;2.50;;;;;;;;;;5034458;28;20180;-60
2022/07/26 03:16:48;;;;;;;9.52;2.58;;;;;;;;;;5020043;28;20197;-61
2022/07/26 03:19:14;;;;;;;9.70;3.08;;;;;;;;;;5014547;28;20265;-62
2022/07/26 03:21:40;;;;;;;9.80;3.53;;;;;;;;;;5030436;28;20236;-64
2022/07/26 03:24:06;;;;;;;11.82;3.65;;;;;;;;;;5049224;28;20270;-62
2022/07/26 03:26:32;;;;;;;18.10;3.88;;;;;;;;;;5028980;28;20241;-70
2022/07/26 03:28:58;;;;;;;12.10;3.90;;;;;;;;;;5034586;28;20212;-73
2022/07/26 03:31:25;;;;;;;13.05;4.07;;;;;;;;;;5047866;28;20184;-73
2022/07/26 03:33:51;;;;;;;11.20;3.92;;;;;;;;;;5034506;28;20188;-72
2022/07/26 03:36:17;;;;;;;13.00;4.40;;;;;;;;;;5030072;28;20265;-70
2022/07/26 03:38:43;;;;;;;9.93;4.22;;;;;;;;;;5032284;28;20208;-72
2022/07/26 03:41:09;;;;;;;16.10;3.88;;;;;;;;;;5044167;28;20188;-70
2022/07/26 03:43:35;;;;;;;16.55;3.67;;;;;;;;;;5032871;28;20223;-68
2022/07/26 03:46:01;;;;;;;15.30;4.15;;;;;;;;;;5031696;28;20698;-69
2022/07/26 03:48:29;;;;;;;13.45;2.83;;;;;;;;;;5053413;28;20207;-67
2022/07/26 03:50:56;;;;;;;13.88;2.80;;;;;;;;;;5040251;28;20195;-67
2022/07/26 03:53:22;;;;;;;11.75;2.78;;;;;;;;;;5033561;28;20225;-67
2022/07/26 03:58:33;;;;;;;11.02;2.67;;;;;;;;;;5032729;28;20274;-68
2022/07/26 04:00:59;;;;;;;10.88;2.33;;;;;;;;;;5031084;28;20244;-68
2022/07/26 04:03:25;;;;;;;12.07;2.70;;;;;;;;;;5048696;28;20711;-70
2022/07/26 04:05:51;;;;;;;12.10;2.70;;;;;;;;;;5028514;28;20179;-69
2022/07/26 04:08:17;;;;;;;12.02;2.83;;;;;;;;;;5031496;28;20682;-68
2022/07/26 04:10:44;;;;;;;7.53;2.55;;;;;;;;;;5031476;28;20196;-68
2022/07/26 04:13:11;;;;;;;10.98;3.05;;;;;;;;;;5030579;28;20202;-69
2022/07/26 04:15:37;;;;;;;14.23;3.22;;;;;;;;;;5031548;28;20191;-67
2022/07/26 04:18:03;;;;;;;13.93;2.80;;;;;;;;;;5032501;28;20183;-62
2022/07/26 04:20:29;;;;;;;5.70;2.60;;;;;;;;;;5046270;28;20188;-63
2022/07/26 04:22:55;;;;;;;10.25;2.65;;;;;;;;;;5033159;28;20176;-63
2022/07/26 04:25:21;;;;;;;9.88;3.30;;;;;;;;;;5030261;28;20202;-63
2022/07/26 04:27:47;;;;;;;15.45;2.60;;;;;;;;;;5033216;28;20290;-62
2022/07/26 04:30:13;;;;;;;7.93;2.80;;;;;;;;;;5028455;28;20196;-64
2022/07/26 04:32:40;;;;;;;6.63;2.38;;;;;;;;;;5032682;28;20191;-62
2022/07/26 04:35:06;;;;;;;9.02;2.72;;;;;;;;;;5046716;28;20187;-62
2022/07/26 04:37:39;;;;;;;8.98;2.65;;;;;;;;;;5031546;28;20277;-61
2022/07/26 04:40:22;;;;;;;8.82;2.50;;;;;;;;;;5027814;28;20651;-62
2022/07/26 04:42:49;;;;;;;7.03;2.75;;;;;;;;;;5032052;28;20184;-60
2022/07/26 04:45:15;;;;;;;11.43;3.70;;;;;;;;;;5045318;28;20191;-61
2022/07/26 04:47:48;;;;;;;9.23;3.10;;;;;;;;;;5041067;28;20207;-61
2022/07/26 04:50:14;;;;;;;11.95;2.90;;;;;;;;;;5028592;28;20246;-63
2022/07/26 04:52:40;;;;;;;11.75;3.10;;;;;;;;;;5046543;28;20275;-62
2022/07/26 04:55:07;;;;;;;8.57;2.90;;;;;;;;;;5040116;28;20195;-62
2022/07/26 04:57:34;;;;;;;8.68;2.80;;;;;;;;;;5024603;28;20184;-62
2022/07/26 05:00:00;;;;;;;10.25;2.72;;;;;;;;;;5044183;28;20192;-62
2022/07/26 05:02:26;;;;;;;9.68;2.75;;;;;;;;;;5046263;28;20592;-62
2022/07/26 05:04:52;;;;;;;8.43;2.97;;;;;;;;;;5029309;28;20187;-64
2022/07/26 05:07:19;;;;;;;11.45;2.78;;;;;;;;;;5031230;28;20216;-64
2022/07/26 05:09:45;;;;;;;11.25;2.97;;;;;;;;;;5021553;28;20267;-65
2022/07/26 05:12:11;;;;;;;14.13;2.95;;;;;;;;;;5031434;28;20194;-66
2022/07/26 05:14:38;;;;;;;13.18;2.75;;;;;;;;;;5014406;28;20184;-66
2022/07/26 05:17:05;;;;;;;11.63;2.70;;;;;;;;;;5028974;28;20724;-66
2022/07/26 05:19:32;;;;;;;11.27;2.55;;;;;;;;;;5030124;28;20187;-62
2022/07/26 05:21:59;;;;;;;11.43;2.30;;;;;;;;;;5046883;28;20183;-67
2022/07/26 05:24:25;;;;;;;14.85;2.63;;;;;;;;;;5035179;28;20537;-67
2022/07/26 05:26:51;;;;;;;10.13;2.10;;;;;;;;;;5048776;28;20226;-67
2022/07/26 05:29:17;;;;;;;9.63;2.22;;;;;;;;;;5034711;28;20670;-66
2022/07/26 05:31:43;;;;;;;8.80;2.40;;;;;;;;;;5033065;28;20195;-66
2022/07/26 05:34:10;;;;;;;11.77;2.38;;;;;;;;;;5033870;28;20242;-63
2022/07/26 05:36:36;;;;;;;7.90;1.63;;;;;;;;;;5033300;28;20322;-67
2022/07/26 05:39:02;;;;;;;6.18;1.55;;;;;;;;;;5034276;28;20183;-66
2022/07/26 05:41:29;;;;;;;10.18;2.00;;;;;;;;;;5030937;28;20180;-66
2022/07/26 05:43:55;;;;;;;11.98;2.03;;;;;;;;;;5031894;28;20196;-67
2022/07/26 05:46:22;;;;;;;8.25;2.10;;;;;;;;;;5028641;28;20192;-66
2022/07/26 05:48:48;;;;;;;10.20;1.50;;;;;;;;;;5036680;28;20230;-62
2022/07/26 05:51:14;;;;;;;8.13;1.40;;;;;;;;;;5045069;28;20192;-63
2022/07/26 05:53:40;;;;;;;6.97;1.45;;;;;;;;;;5050001;28;20582;-65
2022/07/26 05:56:06;;;;;;;8.90;1.77;;;;;;;;;;5030181;28;20565;-63
2022/07/26 05:58:32;;;;;;;5.88;1.40;;;;;;;;;;5034240;28;20192;-64
2022/07/26 06:00:59;;;;;;;6.68;1.23;;;;;;;;;;5031744;28;20195;-63
2022/07/26 06:03:25;;;;;;;4.03;1.02;;;;;;;;;;5021623;28;20181;-66
2022/07/26 06:05:53;;;;;;;10.23;1.25;;;;;;;;;;5029421;28;20208;-65
2022/07/26 06:08:20;;;;;;;5.05;1.40;;;;;;;;;;5031425;28;20262;-66
2022/07/26 06:10:48;;;;;;;7.50;1.42;;;;;;;;;;5030622;28;20188;-64
2022/07/26 06:13:15;;;;;;;5.05;1.60;;;;;;;;;;5018272;28;20572;-63
2022/07/26 06:15:41;;;;;;;4.03;1.30;;;;;;;;;;5048695;28;20212;-62
2022/07/26 06:18:08;;;;;;;5.55;1.70;;;;;;;;;;5034357;28;20211;-64
2022/07/26 06:20:37;;;;;;;8.77;1.50;;;;;;;;;;5033286;28;20180;-64
2022/07/26 06:23:03;;;;;;;6.53;1.45;;;;;;;;;;5033663;28;20596;-64
2022/07/26 06:25:30;;;;;;;8.05;1.52;;;;;;;;;;5048955;28;20188;-64
2022/07/26 06:27:56;;;;;;;10.15;1.45;;;;;;;;;;5047677;28;20218;-63
2022/07/26 06:30:22;;;;;;;12.05;1.30;;;;;;;;;;5028759;28;20271;-64
2022/07/26 06:32:48;;;;;;;2.55;0.98;;;;;;;;;;5045572;28;20581;-64
2022/07/26 06:35:15;;;;;;;9.80;1.75;;;;;;;;;;5030790;28;20648;-62
2022/07/26 06:37:41;;;;;;;7.15;1.60;;;;;;;;;;5023075;28;20232;-63
2022/07/26 06:40:08;;;;;;;9.35;1.30;;;;;;;;;;5018009;28;20176;-63
2022/07/26 06:42:34;;;;;;;6.88;1.55;;;;;;;;;;5030716;28;20196;-64
2022/07/26 06:45:01;;;;;;;7.53;1.20;;;;;;;;;;5031818;28;20178;-65
2022/07/26 06:47:29;;;;;;;6.85;1.42;;;;;;;;;;5032337;28;20251;-65
2022/07/26 06:49:55;;;;;;;5.75;1.17;;;;;;;;;;5047356;28;20192;-64
2022/07/26 06:52:21;;;;;;;10.77;1.77;;;;;;;;;;5032633;28;20180;-64
2022/07/26 06:54:47;;;;;;;6.72;1.50;;;;;;;;;;5031620;28;20172;-64
2022/07/26 06:57:13;;;;;;;11.10;1.90;;;;;;;;;;5034017;28;20188;-66
2022/07/26 06:59:39;;;;;;;20.92;4.38;;;;;;;;;;5033126;28;20176;-65
2022/07/26 07:02:06;;;;;;;5.80;1.85;;;;;;;;;;5049333;28;20577;-65
2022/07/26 07:04:32;;;;;;;8.88;1.58;;;;;;;;;;5031395;28;20184;-62
2022/07/26 07:07:04;;;;;;;10.60;1.88;;;;;;;;;;5033173;28;20267;-68
2022/07/26 07:09:34;;;;;;;8.40;2.75;;;;;;;;;;5041658;28;20184;-66
2022/07/26 07:12:01;;;;;;;9.10;1.23;;;;;;;;;;5032329;28;20188;-68
2022/07/26 07:14:27;;;;;;;3.03;1.20;;;;;;;;;;5032689;28;20670;-65
2022/07/26 07:16:54;;;;;;;9.60;1.30;;;;;;;;;;5029123;28;20184;-67
2022/07/26 07:19:20;;;;;;;6.07;1.23;;;;;;;;;;5018465;28;20176;-66
2022/07/26 07:21:46;;;;;;;7.43;1.40;;;;;;;;;;5029821;28;20298;-67
2022/07/26 07:24:13;;;;;;;7.40;1.33;;;;;;;;;;5031768;28;20226;-67
2022/07/26 07:26:40;;;;;;;5.60;1.30;;;;;;;;;;5045866;28;20199;-67
2022/07/26 07:29:08;;;;;;;4.18;1.10;;;;;;;;;;5033009;28;20255;-67
2022/07/26 07:31:35;;;;;;;8.73;1.30;;;;;;;;;;5031390;28;20180;-67
2022/07/26 07:34:01;;;;;;;4.78;1.20;;;;;;;;;;5033012;28;20486;-68
2022/07/26 07:36:28;;;;;;;5.10;0.82;;;;;;;;;;5030393;28;20234;-67
2022/07/26 07:38:54;;;;;;;4.03;1.10;;;;;;;;;;5031986;28;20611;-66
2022/07/26 07:41:20;;;;;;;3.78;0.93;;;;;;;;;;5030595;28;20249;-67
2022/07/26 07:43:46;;;;;;;4.38;1.02;;;;;;;;;;5032839;28;20664;-67
2022/07/26 07:46:13;;;;;;;1.55;0.75;;;;;;;;;;5030887;28;20188;-71
2022/07/26 07:48:41;;;;;;;3.97;0.80;;;;;;;;;;5055736;28;20631;-71
2022/07/26 07:51:08;;;;;;;3.42;1.02;;;;;;;;;;5029851;28;20188;-71
2022/07/26 07:53:34;;;;;;;7.88;1.30;;;;;;;;;;5046818;28;20594;-70
2022/07/26 07:56:00;;;;;;;5.20;1.25;;;;;;;;;;5030980;28;20188;-69
2022/07/26 07:58:26;;;;;;;4.88;1.20;;;;;;;;;;5046339;28;20282;-70
2022/07/26 08:00:53;;;;;;;8.13;1.40;;;;;;;;;;5031766;28;20199;-69
2022/07/26 08:03:19;;;;;;;4.53;1.17;;;;;;;;;;5025719;28;20207;-69
2022/07/26 08:05:46;;;;;;;7.60;2.10;;;;;;;;;;5041167;28;20184;-70
2022/07/26 08:08:12;;;;;;;6.30;1.30;;;;;;;;;;5030567;28;20211;-66
2022/07/26 08:10:39;;;;;;;4.97;1.00;;;;;;;;;;5030098;28;20206;-67
2022/07/26 08:13:06;;;;;;;6.97;1.48;;;;;;;;;;5031058;28;20617;-67
2022/07/26 08:15:32;;;;;;;4.18;1.45;;;;;;;;;;5046196;28;20187;-64
2022/07/26 08:17:58;;;;;;;5.85;1.23;;;;;;;;;;5031325;28;20188;-64
2022/07/26 08:20:24;;;;;;;8.68;1.38;;;;;;;;;;5024092;28;20207;-63
2022/07/26 08:22:51;;;;;;;4.95;1.25;;;;;;;;;;5021689;28;20251;-65
2022/07/26 08:25:18;;;;;;;4.88;1.13;;;;;;;;;;5022118;28;20176;-64
2022/07/26 08:27:44;;;;;;;6.63;1.48;;;;;;;;;;5031889;28;20874;-64
2022/07/26 08:30:10;;;;;;;9.20;1.63;;;;;;;;;;5029236;28;20312;-65
2022/07/26 08:32:36;;;;;;;7.22;1.35;;;;;;;;;;5031078;28;20281;-62
2022/07/26 08:35:02;;;;;;;7.93;1.58;;;;;;;;;;5024936;28;20184;-58
2022/07/26 08:37:30;;;;;;;8.55;2.53;;;;;;;;;;5025510;28;20251;-65
2022/07/26 08:39:56;;;;;;;6.97;1.42;;;;;;;;;;5027616;28;20202;-65
2022/07/26 08:42:22;;;;;;;6.75;1.27;;;;;;;;;;5014344;28;20304;-64
2022/07/26 08:44:49;;;;;;;4.35;1.27;;;;;;;;;;5044008;28;20525;-64
2022/07/26 08:47:16;;;;;;;3.60;1.05;;;;;;;;;;5047816;28;20187;-60
2022/07/26 08:49:43;;;;;;;4.25;1.00;;;;;;;;;;5039239;28;20180;-63
2022/07/26 08:52:10;;;;;;;4.65;1.08;;;;;;;;;;5032124;28;20179;-65
2022/07/26 08:54:36;;;;;;;4.18;1.35;;;;;;;;;;5038587;28;20550;-64
2022/07/26 08:57:03;;;;;;;5.60;1.00;;;;;;;;;;5032086;28;20179;-64
2022/07/26 08:59:30;;;;;;;4.85;1.55;;;;;;;;;;5031785;28;20710;-60
2022/07/26 09:01:57;;;;;;;7.72;1.73;;;;;;;;;;5046916;28;20266;-64
2022/07/26 09:04:25;;;;;;;7.90;1.30;;;;;;;;;;5047709;28;20569;-63
2022/07/26 09:06:58;;;;;;;11.48;1.60;;;;;;;;;;5029342;28;20199;-65
2022/07/26 09:09:25;;;;;;;4.55;1.08;;;;;;;;;;5031437;28;20254;-62
2022/07/26 09:11:51;;;;;;;8.13;1.73;;;;;;;;;;5029235;28;20275;-63
2022/07/26 09:14:17;;;;;;;3.88;1.20;;;;;;;;;;5011732;28;20259;-64
2022/07/26 09:16:55;;;;;;;6.00;1.30;;;;;;;;;;5026189;28;20192;-62
2022/07/26 09:19:22;;;;;;;8.80;1.58;;;;;;;;;;5027951;28;20545;-62
2022/07/26 09:21:48;;;;;;;9.43;1.80;;;;;;;;;;5029125;28;20658;-62
2022/07/26 09:24:31;;;;;;;9.98;1.67;;;;;;;;;;5024976;28;20173;-61
2022/07/26 09:26:58;;;;;;;8.02;1.48;;;;;;;;;;5029331;28;20238;-62
2022/07/26 09:29:25;;;;;;;8.35;1.65;;;;;;;;;;5031664;28;20269;-62
2022/07/26 09:31:51;;;;;;;4.35;1.48;;;;;;;;;;5028924;28;20263;-62
2022/07/26 09:34:24;;;;;;;7.38;1.42;;;;;;;;;;5024575;28;20652;-63
2022/07/26 09:36:51;;;;;;;8.45;1.65;;;;;;;;;;5030047;28;20242;-63
2022/07/26 09:39:19;;;;;;;5.45;1.27;;;;;;;;;;5030024;28;20187;-64
2022/07/26 09:41:46;;;;;;;5.18;1.48;;;;;;;;;;5024542;28;20215;-64
2022/07/26 09:44:22;;;;;;;7.97;1.65;;;;;;;;;;5012410;28;20185;-64
2022/07/26 09:46:56;;;;;;;11.45;1.48;;;;;;;;;;5027909;28;20218;-64
2022/07/26 09:49:25;;;;;;;8.93;2.00;;;;;;;;;;5030212;28;20310;-64
2022/07/26 09:51:54;;;;;;;6.32;1.48;;;;;;;;;;5030382;28;20191;-63
2022/07/26 09:54:31;;;;;;;8.18;1.58;;;;;;;;;;5029777;28;20591;-59
2022/07/26 09:56:59;;;;;;;6.20;1.60;;;;;;;;;;5030166;28;20184;-62
2022/07/26 09:59:26;;;;;;;5.75;1.83;;;;;;;;;;5028752;28;20671;-62
2022/07/26 10:01:54;;;;;;;10.32;2.45;;;;;;;;;;5030290;28;20172;-62
2022/07/26 10:04:21;;;;;;;12.73;3.38;;;;;;;;;;5045767;28;20188;-61
2022/07/26 10:06:47;;;;;;;8.95;1.88;;;;;;;;;;5029013;28;20664;-61
2022/07/26 10:09:14;;;;;;;11.77;2.30;;;;;;;;;;5032035;28;20211;-60
2022/07/26 10:11:52;;;;;;;7.82;2.20;;;;;;;;;;5030323;28;20199;-61
2022/07/26 10:14:37;;;;;;;12.85;2.58;;;;;;;;;;5021943;28;20176;-61
2022/07/26 10:17:22;;;;;;;9.13;1.60;;;;;;;;;;5033588;28;20188;-61
2022/07/26 10:19:48;;;;;;;6.47;2.13;;;;;;;;;;5027268;28;20175;-61
2022/07/26 10:22:24;;;;;;;7.65;1.60;;;;;;;;;;5034459;28;20295;-61
2022/07/26 10:24:51;;;;;;;8.15;1.48;;;;;;;;;;5048941;28;20532;-61
2022/07/26 10:27:36;;;;;;;7.82;1.67;;;;;;;;;;5033882;28;20226;-61
2022/07/26 10:30:21;;;;;;;5.45;2.10;;;;;;;;;;5030653;28;20268;-61
2022/07/26 10:32:50;;;;;;;8.73;2.05;;;;;;;;;;5033799;28;20188;-60
2022/07/26 10:35:39;;;;;;;10.73;1.65;;;;;;;;;;5043685;28;20616;-61
2022/07/26 10:38:05;;;;;;;6.57;1.48;;;;;;;;;;5025993;28;20247;-62
2022/07/26 10:40:31;;;;;;;11.93;2.00;;;;;;;;;;5019053;28;20234;-63
2022/07/26 10:43:07;;;;;;;9.82;1.73;;;;;;;;;;5047847;28;20569;-61
2022/07/26 10:45:35;;;;;;;7.03;1.60;;;;;;;;;;5022601;28;20193;-61
2022/07/26 10:48:11;;;;;;;7.47;1.65;;;;;;;;;;5016049;28;20248;-61
2022/07/26 10:50:37;;;;;;;7.80;1.60;;;;;;;;;;5021375;28;20199;-61
2022/07/26 10:53:04;;;;;;;10.70;2.60;;;;;;;;;;5033597;28;20192;-62
2022/07/26 10:55:30;;;;;;;8.98;2.10;;;;;;;;;;5048056;28;20251;-61
2022/07/26 10:57:56;;;;;;;4.93;1.70;;;;;;;;;;5032928;28;20274;-62
2022/07/26 11:00:23;;;;;;;6.90;1.80;;;;;;;;;;5023658;28;20215;-61
2022/07/26 11:02:52;;;;;;;10.23;1.67;;;;;;;;;;5031172;28;20187;-62
2022/07/26 11:05:19;;;;;;;5.53;1.52;;;;;;;;;;5031399;28;20192;-61
2022/07/26 11:07:57;;;;;;;8.50;2.15;;;;;;;;;;5022480;28;20246;-62
2022/07/26 11:10:24;;;;;;;10.30;1.98;;;;;;;;;;5023548;28;20202;-62
2022/07/26 11:13:04;;;;;;;9.75;1.77;;;;;;;;;;5044785;28;20256;-63
2022/07/26 11:15:30;;;;;;;9.50;1.92;;;;;;;;;;5031977;28;20198;-62
2022/07/26 11:18:11;;;;;;;10.45;1.73;;;;;;;;;;5025565;28;20188;-63
2022/07/26 11:20:38;;;;;;;13.02;1.88;;;;;;;;;;5020946;28;20256;-62
2022/07/26 11:23:04;;;;;;;9.70;1.95;;;;;;;;;;5032673;28;20190;-62
2022/07/26 11:25:30;;;;;;;13.35;1.73;;;;;;;;;;5031734;28;20206;-61
2022/07/26 11:28:04;;;;;;;7.88;1.77;;;;;;;;;;5032917;28;20212;-60
2022/07/26 11:30:31;;;;;;;6.95;1.73;;;;;;;;;;5038526;28;20191;-62
2022/07/26 11:33:00;;;;;;;7.03;1.50;;;;;;;;;;5028046;28;20327;-61
2022/07/26 11:35:27;;;;;;;6.95;1.48;;;;;;;;;;5027836;28;20189;-62
2022/07/26 11:37:57;;;;;;;6.63;1.50;;;;;;;;;;5014470;28;20696;-62
2022/07/26 11:40:41;;;;;;;9.38;1.17;;;;;;;;;;5019081;28;20184;-61
2022/07/26 11:43:08;;;;;;;10.20;1.65;;;;;;;;;;5048208;28;20188;-60
2022/07/26 11:45:34;;;;;;;8.70;1.60;;;;;;;;;;5031587;28;20184;-62
2022/07/26 11:48:01;;;;;;;6.20;1.42;;;;;;;;;;5036537;28;20210;-61
2022/07/26 11:50:27;;;;;;;10.05;1.40;;;;;;;;;;5042166;28;20187;-62
2022/07/26 11:52:53;;;;;;;8.55;1.50;;;;;;;;;;5033649;28;20210;-62
2022/07/26 11:55:29;;;;;;;7.38;1.45;;;;;;;;;;5030522;28;20705;-61
2022/07/26 11:57:56;;;;;;;8.10;1.30;;;;;;;;;;5047306;28;20647;-62
2022/07/26 12:00:23;;;;;;;6.43;1.30;;;;;;;;;;5030991;28;20187;-61
2022/07/26 12:02:50;;;;;;;6.25;1.77;;;;;;;;;;5033603;28;20294;-62
2022/07/26 12:05:20;;;;;;;11.63;1.83;;;;;;;;;;5029603;28;20295;-61
2022/07/26 12:07:57;;;;;;;6.18;1.30;;;;;;;;;;5033314;28;20216;-62
2022/07/26 12:10:24;;;;;;;6.90;1.40;;;;;;;;;;5030535;28;20655;-61
2022/07/26 12:13:05;;;;;;;5.03;1.48;;;;;;;;;;5031731;28;20195;-62
2022/07/26 12:15:42;;;;;;;5.95;1.30;;;;;;;;;;5028554;28;20338;-61
2022/07/26 12:18:09;;;;;;;7.20;1.63;;;;;;;;;;5021968;28;20184;-62
2022/07/26 12:20:35;;;;;;;5.60;1.65;;;;;;;;;;5020298;28;20203;-61
2022/07/26 12:23:04;;;;;;;6.88;1.52;;;;;;;;;;5032037;28;20813;-61
2022/07/26 12:25:31;;;;;;;5.72;0.90;;;;;;;;;;5030014;28;20632;-62
2022/07/26 12:27:58;;;;;;;5.38;1.30;;;;;;;;;;5031891;28;20215;-61
2022/07/26 12:30:24;;;;;;;5.85;1.70;;;;;;;;;;5028299;28;20199;-61
2022/07/26 12:32:53;;;;;;;5.38;1.45;;;;;;;;;;5032225;28;20285;-61
2022/07/26 12:35:28;;;;;;;3.50;1.20;;;;;;;;;;5029989;28;20652;-62
2022/07/26 12:37:54;;;;;;;5.88;1.30;;;;;;;;;;5020871;28;20223;-62
2022/07/26 12:40:21;;;;;;;7.10;1.25;;;;;;;;;;5027728;28;20188;-62
2022/07/26 12:42:51;;;;;;;9.50;2.05;;;;;;;;;;5030687;28;20693;-62
2022/07/26 12:45:21;;;;;;;5.55;1.33;;;;;;;;;;5025476;28;22675;-61
2022/07/26 12:47:49;;;;;;;9.00;1.13;;;;;;;;;;5031924;28;20607;-60
2022/07/26 12:50:16;;;;;;;5.60;1.40;;;;;;;;;;5027550;28;20180;-60
2022/07/26 12:52:42;;;;;;;4.47;1.00;;;;;;;;;;5031604;28;20203;-62
2022/07/26 12:55:11;;;;;;;4.65;1.33;;;;;;;;;;5031279;28;20180;-62
2022/07/26 12:57:37;;;;;;;4.55;1.02;;;;;;;;;;5030749;28;20183;-62
2022/07/26 13:00:04;;;;;;;7.07;1.10;;;;;;;;;;5029645;28;20285;-62
2022/07/26 13:02:30;;;;;;;3.58;1.20;;;;;;;;;;5013311;28;20211;-61
2022/07/26 13:04:57;;;;;;;4.78;1.20;;;;;;;;;;5041510;28;20204;-62
2022/07/26 13:07:23;;;;;;;5.03;1.05;;;;;;;;;;5032359;28;20287;-61
2022/07/26 13:09:49;;;;;;;4.85;1.23;;;;;;;;;;5028828;28;20176;-62
2022/07/26 13:12:15;;;;;;;5.68;1.15;;;;;;;;;;5032751;28;20643;-60
2022/07/26 13:14:42;;;;;;;7.93;1.55;;;;;;;;;;5022497;28;20663;-62
2022/07/26 13:17:08;;;;;;;5.32;1.50;;;;;;;;;;5019115;28;20688;-62
2022/07/26 13:19:35;;;;;;;7.50;1.83;;;;;;;;;;5031492;28;20301;-62
2022/07/26 13:22:02;;;;;;;7.43;1.60;;;;;;;;;;5030909;28;20222;-62
2022/07/26 13:24:29;;;;;;;5.93;1.60;;;;;;;;;;5032012;28;20183;-62
2022/07/26 13:26:55;;;;;;;9.23;1.75;;;;;;;;;;5030628;28;20195;-64
2022/07/26 13:29:21;;;;;;;9.13;1.80;;;;;;;;;;5031842;28;20215;-61
2022/07/26 13:31:49;;;;;;;10.73;2.00;;;;;;;;;;5030609;28;20184;-62
2022/07/26 13:34:16;;;;;;;5.72;1.77;;;;;;;;;;5031404;28;20211;-61
2022/07/26 13:36:42;;;;;;;5.05;1.42;;;;;;;;;;5028025;28;20601;-63
2022/07/26 13:39:08;;;;;;;7.53;1.40;;;;;;;;;;5029308;28;20199;-62
2022/07/26 13:41:35;;;;;;;6.25;1.23;;;;;;;;;;5030888;28;20206;-63
2022/07/26 13:44:01;;;;;;;9.23;1.63;;;;;;;;;;5052703;28;20215;-62
2022/07/26 13:46:31;;;;;;;5.40;1.77;;;;;;;;;;5032970;28;20229;-62
2022/07/26 13:48:59;;;;;;;6.22;1.25;;;;;;;;;;5040134;28;20212;-62
2022/07/26 13:51:55;;;;;;;9.43;1.80;;;;;;;;;;5033772;28;20180;-63
2022/07/26 13:54:16;;;;;;;8.60;1.40;;;;;;;;;;5035987;28;20226;-63
2022/07/26 13:56:43;;;;;;;7.85;1.92;;;;;;;;;;5049504;28;20194;-62
2022/07/26 13:59:09;;;;;;;8.75;2.42;;;;;;;;;;5035570;28;20191;-64
2022/07/26 14:01:35;;;;;;;8.07;1.27;;;;;;;;;;5017804;28;20193;-63
2022/07/26 14:04:05;;;;;;;4.80;1.40;;;;;;;;;;5029280;28;20180;-62
2022/07/26 14:06:31;;;;;;;5.55;1.30;;;;;;;;;;5032293;28;20206;-62
2022/07/26 14:08:58;;;;;;;5.50;1.20;;;;;;;;;;5034042;28;20212;-63
2022/07/26 14:11:24;;;;;;;4.90;1.30;;;;;;;;;;5022426;28;20644;-63
2022/07/26 14:13:50;;;;;;;3.58;1.10;;;;;;;;;;5019404;28;20176;-62
2022/07/26 14:16:16;;;;;;;5.57;1.10;;;;;;;;;;5033436;28;20329;-62
2022/07/26 14:18:43;;;;;;;4.13;1.05;;;;;;;;;;5048483;28;20188;-62
2022/07/26 14:21:09;;;;;;;6.30;1.30;;;;;;;;;;5032791;28;20214;-63
2022/07/26 14:23:36;;;;;;;8.60;1.17;;;;;;;;;;5050479;28;20206;-62
2022/07/26 14:26:02;;;;;;;4.50;1.42;;;;;;;;;;5033096;28;20211;-63
2022/07/26 14:28:28;;;;;;;7.68;1.23;;;;;;;;;;5035113;28;20310;-63
2022/07/26 14:30:55;;;;;;;6.35;1.35;;;;;;;;;;5030874;28;20187;-64
2022/07/26 14:33:21;;;;;;;3.90;1.20;;;;;;;;;;5034067;28;20188;-63
2022/07/26 14:35:47;;;;;;;5.35;1.38;;;;;;;;;;5048181;28;20180;-63
2022/07/26 14:38:13;;;;;;;5.00;1.40;;;;;;;;;;5035297;28;20192;-63
2022/07/26 14:40:40;;;;;;;8.30;1.40;;;;;;;;;;5033274;28;20188;-63
2022/07/26 14:43:07;;;;;;;5.90;1.25;;;;;;;;;;5018122;28;20185;-64
2022/07/26 14:45:33;;;;;;;7.07;1.33;;;;;;;;;;5021827;28;20184;-63